Time;durP1;ratioP1;P1;durP2;ratioP2;P2;SDS_P1;SDS_P2;PMS_P1;PMS_P2;Temp;Humidity;BMP_temperature;BMP_pressure;BME280_temperature;BME280_humidity;BME280_pressure;Samples;Min_cycle;Max_cycle;Signal;HPM_P1;HPM_P2
2021/05/13 00:01:26;;;;;;;4.47;3.80;;;10.80;99.90;;;;;;5094807;28;20287;-64
2021/05/13 00:03:55;;;;;;;5.03;3.27;;;10.80;99.90;;;;;;5094394;28;20228;-63
2021/05/13 00:06:22;;;;;;;5.53;3.77;;;10.70;99.90;;;;;;5094122;28;20197;-63
2021/05/13 00:08:55;;;;;;;3.60;3.30;;;10.80;99.90;;;;;;5094033;28;20632;-63
2021/05/13 00:11:28;;;;;;;4.13;3.73;;;10.80;99.90;;;;;;5094027;28;20200;-64
2021/05/13 00:13:56;;;;;;;4.50;3.50;;;10.80;99.90;;;;;;5094228;28;20216;-64
2021/05/13 00:16:28;;;;;;;4.23;3.37;;;10.80;99.90;;;;;;5094415;28;20702;-64
2021/05/13 00:18:56;;;;;;;4.07;3.67;;;10.70;99.90;;;;;;5094401;28;20274;-64
2021/05/13 00:21:24;;;;;;;5.50;3.80;;;10.70;99.90;;;;;;5094517;28;20291;-64
2021/05/13 00:23:52;;;;;;;4.30;3.90;;;10.70;99.90;;;;;;5094265;28;20224;-63
2021/05/13 00:26:34;;;;;;;5.20;4.00;;;10.70;99.90;;;;;;5094406;28;20332;-64
2021/05/13 00:29:03;;;;;;;5.03;4.10;;;10.70;99.90;;;;;;5094271;28;20287;-64
2021/05/13 00:31:31;;;;;;;4.90;4.40;;;10.70;99.90;;;;;;5094097;28;20235;-64
2021/05/13 00:34:00;;;;;;;4.50;4.10;;;10.70;99.90;;;;;;5094263;28;20196;-64
2021/05/13 00:36:29;;;;;;;5.97;4.50;;;10.70;99.90;;;;;;5093986;28;20287;-63
2021/05/13 00:39:04;;;;;;;5.10;4.60;;;10.80;99.90;;;;;;5093810;28;20326;-64
2021/05/13 00:41:31;;;;;;;7.10;4.67;;;10.80;99.90;;;;;;5093964;28;20200;-64
2021/05/13 00:43:59;;;;;;;5.03;4.63;;;10.80;99.90;;;;;;5093719;28;20223;-63
2021/05/13 00:46:27;;;;;;;5.90;5.30;;;10.80;99.90;;;;;;5093923;28;20243;-64
2021/05/13 00:49:01;;;;;;;5.83;5.33;;;10.70;99.90;;;;;;5093877;28;20207;-63
2021/05/13 00:51:29;;;;;;;8.67;5.63;;;10.70;99.90;;;;;;5093520;28;20190;-63
2021/05/13 00:53:57;;;;;;;7.40;6.13;;;10.60;99.90;;;;;;5093687;28;20286;-63
2021/05/13 00:56:27;;;;;;;6.70;6.00;;;10.60;99.90;;;;;;5093404;28;20664;-63
2021/05/13 00:58:56;;;;;;;7.13;6.43;;;10.60;99.90;;;;;;5093534;28;20267;-63
2021/05/13 01:01:25;;;;;;;8.43;6.93;;;10.60;99.90;;;;;;5093606;28;20386;-64
2021/05/13 01:03:52;;;;;;;8.30;7.27;;;10.60;99.90;;;;;;5093559;28;20291;-64
2021/05/13 01:06:21;;;;;;;8.03;7.33;;;10.60;99.90;;;;;;5093208;28;20832;-64
2021/05/13 01:08:49;;;;;;;8.67;7.60;;;10.60;99.90;;;;;;5093433;28;20231;-63
2021/05/13 01:11:16;;;;;;;9.03;7.83;;;10.60;99.90;;;;;;5093332;28;20249;-63
2021/05/13 01:13:53;;;;;;;8.83;7.93;;;10.60;99.90;;;;;;5093323;28;20291;-64
2021/05/13 01:16:27;;;;;;;9.70;8.70;;;10.60;99.90;;;;;;5092851;28;20218;-63
2021/05/13 01:18:56;;;;;;;8.70;7.80;;;10.60;99.90;;;;;;5093449;28;20274;-63
2021/05/13 01:21:24;;;;;;;8.93;8.03;;;10.60;99.90;;;;;;5093042;28;20200;-64
2021/05/13 01:23:52;;;;;;;9.80;8.70;;;10.60;99.90;;;;;;5093288;28;20208;-63
2021/05/13 01:26:19;;;;;;;9.33;8.37;;;10.60;99.90;;;;;;5093086;28;20200;-64
2021/05/13 01:28:46;;;;;;;10.13;8.80;;;10.60;99.90;;;;;;5093130;28;20445;-64
2021/05/13 01:31:14;;;;;;;9.60;8.70;;;10.60;99.90;;;;;;5093204;28;20200;-63
2021/05/13 01:33:43;;;;;;;9.90;8.23;;;10.60;99.90;;;;;;5093166;28;20625;-64
2021/05/13 01:36:10;;;;;;;10.33;8.60;;;10.60;99.90;;;;;;5093199;28;20307;-63
2021/05/13 01:38:38;;;;;;;9.73;8.33;;;10.60;99.90;;;;;;5092733;28;20863;-64
2021/05/13 01:41:06;;;;;;;9.83;8.40;;;10.60;99.90;;;;;;5092903;28;20292;-62
2021/05/13 01:43:33;;;;;;;8.63;7.77;;;10.60;99.90;;;;;;5092875;28;20239;-64
2021/05/13 01:46:01;;;;;;;10.97;9.37;;;10.60;99.90;;;;;;5092930;28;20216;-63
2021/05/13 01:48:29;;;;;;;10.03;8.63;;;10.60;99.90;;;;;;5093034;28;20210;-64
2021/05/13 01:50:57;;;;;;;10.50;8.67;;;10.70;99.90;;;;;;5092975;28;20207;-64
2021/05/13 01:53:25;;;;;;;10.20;8.87;;;10.70;99.90;;;;;;5093063;28;20223;-63
2021/05/13 01:55:53;;;;;;;9.40;8.50;;;10.60;99.90;;;;;;5092879;28;20222;-65
2021/05/13 01:58:20;;;;;;;12.23;9.43;;;10.60;99.90;;;;;;5092651;28;20231;-64
2021/05/13 02:00:49;;;;;;;10.13;8.87;;;10.60;99.90;;;;;;5092985;28;20204;-64
2021/05/13 02:03:17;;;;;;;9.87;8.73;;;10.60;99.90;;;;;;5092636;28;20662;-64
2021/05/13 02:05:44;;;;;;;10.10;9.10;;;10.60;99.90;;;;;;5092604;28;20774;-64
2021/05/13 02:08:11;;;;;;;10.20;9.10;;;10.60;99.90;;;;;;5092862;28;20211;-64
2021/05/13 02:10:39;;;;;;;9.77;8.77;;;10.70;99.90;;;;;;5092714;28;20227;-63
2021/05/13 02:13:07;;;;;;;11.10;9.60;;;10.60;99.90;;;;;;5092764;28;20242;-64
2021/05/13 02:15:34;;;;;;;10.00;8.73;;;10.60;99.90;;;;;;5092694;28;20300;-64
2021/05/13 02:18:02;;;;;;;12.13;9.77;;;10.60;99.90;;;;;;5092691;28;20204;-64
2021/05/13 02:20:29;;;;;;;12.40;8.53;;;10.60;99.90;;;;;;5092684;28;20204;-63
2021/05/13 02:22:58;;;;;;;12.73;9.23;;;10.60;99.90;;;;;;5092670;28;20695;-63
2021/05/13 02:25:27;;;;;;;9.73;8.70;;;10.60;99.90;;;;;;5092656;28;20306;-63
2021/05/13 02:27:54;;;;;;;9.87;8.77;;;10.70;99.90;;;;;;5093120;28;20294;-63
2021/05/13 02:30:23;;;;;;;12.07;8.53;;;10.70;99.90;;;;;;5096438;28;20227;-64
2021/05/13 02:32:50;;;;;;;11.80;9.00;;;10.60;99.90;;;;;;5095994;28;20643;-63
2021/05/13 02:35:18;;;;;;;11.60;9.37;;;10.70;99.90;;;;;;5095996;28;20248;-64
2021/05/13 02:37:46;;;;;;;9.43;8.30;;;10.70;99.90;;;;;;5096282;28;20236;-63
2021/05/13 02:40:15;;;;;;;9.87;8.27;;;10.60;99.90;;;;;;5096287;28;20204;-64
2021/05/13 02:42:43;;;;;;;10.83;9.13;;;10.60;99.90;;;;;;5096464;28;20227;-63
2021/05/13 02:45:12;;;;;;;11.47;9.70;;;10.60;99.90;;;;;;5096177;28;20216;-63
2021/05/13 02:47:40;;;;;;;12.53;10.17;;;10.60;99.90;;;;;;5095954;28;20715;-64
2021/05/13 02:50:10;;;;;;;14.80;10.40;;;10.60;99.90;;;;;;5096337;28;20381;-64
2021/05/13 02:52:38;;;;;;;12.00;10.33;;;10.70;99.90;;;;;;5096228;28;20231;-64
2021/05/13 02:55:08;;;;;;;11.97;10.17;;;10.50;99.90;;;;;;5095887;28;20706;-64
2021/05/13 02:57:36;;;;;;;12.90;10.53;;;10.50;99.90;;;;;;5096102;28;20287;-63
2021/05/13 03:00:17;;;;;;;11.43;9.50;;;10.60;99.90;;;;;;5095758;28;20257;-64
2021/05/13 03:02:46;;;;;;;10.57;9.33;;;10.60;99.90;;;;;;5095867;28;20220;-63
2021/05/13 03:05:15;;;;;;;11.13;9.23;;;10.60;99.90;;;;;;5096004;28;20223;-63
2021/05/13 03:07:45;;;;;;;10.80;9.10;;;10.50;99.90;;;;;;5095666;28;20742;-63
2021/05/13 03:10:18;;;;;;;11.00;8.67;;;10.60;99.90;;;;;;5095542;28;20188;-64
2021/05/13 03:12:47;;;;;;;11.00;9.30;;;10.50;99.90;;;;;;5095824;28;20288;-64
2021/05/13 03:15:14;;;;;;;9.93;8.93;;;10.50;99.90;;;;;;5095591;28;20290;-63
2021/05/13 03:17:42;;;;;;;9.70;8.70;;;10.50;99.90;;;;;;5095728;28;20200;-63
2021/05/13 03:20:16;;;;;;;10.90;9.03;;;10.50;99.90;;;;;;5095444;28;20661;-64
2021/05/13 03:22:43;;;;;;;10.43;8.93;;;10.50;99.90;;;;;;5095677;28;20193;-63
2021/05/13 03:25:13;;;;;;;11.33;8.37;;;10.60;99.90;;;;;;5095437;28;20306;-64
2021/05/13 03:27:46;;;;;;;10.63;7.90;;;10.60;99.90;;;;;;5095648;28;20200;-63
2021/05/13 03:30:15;;;;;;;9.27;7.70;;;10.60;99.90;;;;;;5095451;28;20271;-64
2021/05/13 03:32:42;;;;;;;9.80;8.07;;;10.60;99.90;;;;;;5095164;28;20250;-63
2021/05/13 03:35:14;;;;;;;9.87;8.00;;;10.50;99.90;;;;;;5095476;28;20200;-63
2021/05/13 03:37:41;;;;;;;10.47;7.50;;;10.50;99.90;;;;;;5094967;28;20272;-64
2021/05/13 03:40:10;;;;;;;9.00;7.90;;;10.60;99.90;;;;;;5094503;28;20239;-65
2021/05/13 03:42:37;;;;;;;8.97;7.90;;;10.60;99.90;;;;;;5095255;28;20287;-64
2021/05/13 03:45:06;;;;;;;10.83;8.60;;;10.60;99.90;;;;;;5095054;28;20314;-63
2021/05/13 03:47:33;;;;;;;8.17;7.37;;;10.60;99.90;;;;;;5094992;28;20781;-64
2021/05/13 03:50:01;;;;;;;9.67;7.87;;;10.60;99.90;;;;;;5094867;28;20200;-63
2021/05/13 03:52:29;;;;;;;7.67;6.83;;;10.70;99.90;;;;;;5094749;28;20494;-63
2021/05/13 03:54:56;;;;;;;8.07;7.00;;;10.60;99.90;;;;;;5095113;28;20196;-63
2021/05/13 03:57:24;;;;;;;8.67;7.30;;;10.70;99.90;;;;;;5094835;28;20278;-64
2021/05/13 03:59:54;;;;;;;7.80;7.00;;;10.60;99.90;;;;;;5094523;28;20265;-63
2021/05/13 04:02:30;;;;;;;7.87;6.73;;;10.70;99.90;;;;;;5094935;28;20283;-63
2021/05/13 04:04:57;;;;;;;8.70;6.37;;;10.80;99.90;;;;;;5094553;28;20239;-63
2021/05/13 04:07:29;;;;;;;8.83;6.23;;;10.80;99.90;;;;;;5094802;28;20200;-64
2021/05/13 04:09:57;;;;;;;8.90;7.20;;;10.80;99.90;;;;;;5094475;28;20280;-63
2021/05/13 04:12:25;;;;;;;9.50;6.90;;;10.80;99.90;;;;;;5094229;28;20659;-63
2021/05/13 04:14:54;;;;;;;8.23;7.07;;;10.80;99.90;;;;;;5094117;28;20584;-64
2021/05/13 04:17:21;;;;;;;9.50;7.40;;;10.90;99.90;;;;;;5094279;28;20295;-63
2021/05/13 04:19:49;;;;;;;7.23;6.50;;;10.90;99.90;;;;;;5094551;28;20215;-64
2021/05/13 04:22:16;;;;;;;7.93;6.40;;;10.90;99.90;;;;;;5094220;28;20200;-63
2021/05/13 04:24:44;;;;;;;9.70;7.00;;;10.90;99.90;;;;;;5094476;28;20242;-64
2021/05/13 04:27:12;;;;;;;8.30;7.50;;;10.90;99.90;;;;;;5094288;28;20228;-63
2021/05/13 04:29:39;;;;;;;7.17;6.40;;;10.80;99.90;;;;;;5094202;28;20299;-64
2021/05/13 04:32:07;;;;;;;8.13;6.73;;;10.90;99.90;;;;;;5094162;28;20613;-63
2021/05/13 04:34:34;;;;;;;7.70;6.90;;;10.90;99.90;;;;;;5093883;28;20207;-64
2021/05/13 04:37:01;;;;;;;8.40;6.50;;;10.80;99.90;;;;;;5093436;28;20826;-63
2021/05/13 04:39:29;;;;;;;8.07;6.47;;;10.90;99.90;;;;;;5093068;28;20668;-62
2021/05/13 04:41:57;;;;;;;8.93;6.60;;;10.90;99.90;;;;;;5093610;28;20724;-63
2021/05/13 04:44:24;;;;;;;7.63;6.53;;;10.90;99.90;;;;;;5093721;28;20204;-64
2021/05/13 04:46:58;;;;;;;6.87;6.17;;;11.00;99.90;;;;;;5093918;28;20230;-63
2021/05/13 04:49:26;;;;;;;7.23;5.53;;;11.00;99.90;;;;;;5093969;28;20245;-63
2021/05/13 04:51:54;;;;;;;6.50;5.53;;;11.10;99.90;;;;;;5093522;28;20200;-64
2021/05/13 04:54:21;;;;;;;6.17;4.67;;;11.10;99.90;;;;;;5093471;28;20230;-63
2021/05/13 04:56:48;;;;;;;7.30;4.97;;;11.10;99.90;;;;;;5092951;28;20220;-63
2021/05/13 04:59:17;;;;;;;6.37;4.70;;;11.10;99.90;;;;;;5072987;28;20193;-62
2021/05/13 05:01:45;;;;;;;5.43;4.00;;;11.10;99.90;;;;;;5073162;28;20283;-64
2021/05/13 05:04:12;;;;;;;5.87;4.20;;;11.10;99.90;;;;;;5073249;28;20207;-63
2021/05/13 05:06:39;;;;;;;5.67;3.93;;;11.00;99.90;;;;;;5073097;28;20342;-64
2021/05/13 05:09:07;;;;;;;6.33;4.13;;;11.00;99.90;;;;;;5073302;28;20203;-63
2021/05/13 05:11:34;;;;;;;5.47;4.20;;;11.00;99.90;;;;;;5073070;28;20292;-64
2021/05/13 05:14:02;;;;;;;4.03;3.63;;;11.00;99.90;;;;;;5083433;28;20288;-63
2021/05/13 05:16:30;;;;;;;4.77;3.57;;;11.00;99.90;;;;;;5093315;28;20236;-63
2021/05/13 05:18:58;;;;;;;4.90;3.93;;;10.90;99.90;;;;;;5093517;28;20253;-63
2021/05/13 05:21:25;;;;;;;4.70;3.90;;;10.90;99.90;;;;;;5093365;28;20204;-62
2021/05/13 05:23:53;;;;;;;4.40;4.00;;;10.90;99.90;;;;;;5093234;28;20196;-63
2021/05/13 05:26:20;;;;;;;4.53;3.90;;;10.90;99.90;;;;;;5092865;28;20262;-65
2021/05/13 05:28:48;;;;;;;5.67;4.30;;;10.80;99.90;;;;;;5093157;28;20196;-63
2021/05/13 05:31:15;;;;;;;4.70;3.67;;;10.80;99.90;;;;;;5092894;28;20675;-63
2021/05/13 05:33:43;;;;;;;5.37;3.97;;;10.80;99.90;;;;;;5093085;28;20291;-64
2021/05/13 05:36:11;;;;;;;5.33;4.47;;;10.80;99.90;;;;;;5092795;28;20283;-65
2021/05/13 05:38:38;;;;;;;5.93;4.10;;;10.80;99.90;;;;;;5092695;28;20745;-63
2021/05/13 05:41:06;;;;;;;5.00;4.17;;;10.80;99.90;;;;;;5092850;28;20200;-63
2021/05/13 05:43:33;;;;;;;6.70;4.73;;;10.80;99.90;;;;;;5092627;28;20236;-63
2021/05/13 05:46:00;;;;;;;6.07;4.33;;;10.90;99.90;;;;;;5092715;28;20592;-63
2021/05/13 05:48:28;;;;;;;5.13;4.33;;;10.80;99.90;;;;;;5092959;28;20204;-64
2021/05/13 05:50:56;;;;;;;6.63;5.57;;;10.90;99.90;;;;;;5092571;28;20547;-64
2021/05/13 05:53:23;;;;;;;6.37;5.23;;;10.90;99.90;;;;;;5092912;28;20290;-64
2021/05/13 05:55:51;;;;;;;6.53;4.67;;;11.00;99.90;;;;;;5092627;28;20239;-64
2021/05/13 05:58:18;;;;;;;5.53;5.03;;;11.00;99.90;;;;;;5092874;28;20234;-63
2021/05/13 06:00:45;;;;;;;5.80;5.20;;;11.00;99.90;;;;;;5092412;28;20659;-63
2021/05/13 06:03:13;;;;;;;5.87;5.27;;;11.00;99.90;;;;;;5091957;28;20689;-64
2021/05/13 06:05:40;;;;;;;5.40;4.90;;;11.00;99.90;;;;;;5092687;28;20215;-63
2021/05/13 06:08:08;;;;;;;8.13;5.53;;;10.90;99.90;;;;;;5092754;28;20200;-62
2021/05/13 06:10:36;;;;;;;7.50;5.80;;;10.90;99.90;;;;;;5092621;28;20258;-63
2021/05/13 06:13:07;;;;;;;7.50;5.57;;;11.00;99.90;;;;;;5092511;28;20204;-63
2021/05/13 06:15:36;;;;;;;6.43;5.77;;;11.00;99.90;;;;;;5092434;28;20204;-63
2021/05/13 06:18:04;;;;;;;8.30;5.50;;;11.10;99.90;;;;;;5092503;28;20204;-64
2021/05/13 06:20:33;;;;;;;6.67;5.87;;;11.10;99.90;;;;;;5092562;28;20279;-64
2021/05/13 06:23:01;;;;;;;6.00;5.37;;;11.10;99.90;;;;;;5092647;28;20215;-63
2021/05/13 06:25:29;;;;;;;7.90;5.77;;;11.20;99.90;;;;;;5092473;28;20309;-63
2021/05/13 06:27:57;;;;;;;6.73;5.83;;;11.20;99.90;;;;;;5092312;28;20624;-64
2021/05/13 06:30:25;;;;;;;6.47;5.53;;;11.30;99.90;;;;;;5092574;28;20651;-63
2021/05/13 06:32:52;;;;;;;7.67;6.30;;;11.40;99.90;;;;;;5092476;28;20235;-63
2021/05/13 06:35:21;;;;;;;6.77;5.00;;;11.40;99.90;;;;;;5092558;28;20204;-63
2021/05/13 06:37:49;;;;;;;8.10;6.80;;;11.30;99.90;;;;;;5092023;28;20271;-63
2021/05/13 06:40:16;;;;;;;6.80;5.60;;;11.30;99.90;;;;;;5092423;28;20196;-63
2021/05/13 06:42:45;;;;;;;6.17;5.57;;;11.30;99.90;;;;;;5092311;28;20287;-63
2021/05/13 06:45:14;;;;;;;6.17;5.53;;;11.30;99.90;;;;;;5092340;28;20203;-64
2021/05/13 06:47:43;;;;;;;7.27;5.37;;;11.40;99.90;;;;;;5092045;28;20691;-63
2021/05/13 06:50:12;;;;;;;6.97;5.97;;;11.40;99.90;;;;;;5092260;28;20207;-64
2021/05/13 06:52:39;;;;;;;7.57;5.63;;;11.40;99.90;;;;;;5092085;28;20193;-65
2021/05/13 06:55:09;;;;;;;9.50;5.40;;;11.50;99.90;;;;;;5087366;28;20192;-64
2021/05/13 06:57:36;;;;;;;6.53;5.60;;;11.50;99.90;;;;;;5071843;28;20232;-63
2021/05/13 07:00:06;;;;;;;7.37;6.07;;;11.50;99.90;;;;;;5071884;28;20313;-62
2021/05/13 07:02:34;;;;;;;7.87;5.60;;;11.60;99.90;;;;;;5071852;28;20197;-63
2021/05/13 07:05:02;;;;;;;6.53;5.77;;;11.60;99.90;;;;;;5072059;28;20300;-63
2021/05/13 07:07:30;;;;;;;6.27;5.10;;;11.60;99.90;;;;;;5071963;28;20603;-63
2021/05/13 07:09:57;;;;;;;6.57;5.80;;;11.60;99.90;;;;;;5071986;28;20203;-63
2021/05/13 07:12:24;;;;;;;6.43;5.33;;;11.70;99.90;;;;;;5071455;28;20239;-63
2021/05/13 07:14:52;;;;;;;7.10;5.57;;;11.80;99.90;;;;;;5089716;28;20232;-64
2021/05/13 07:17:20;;;;;;;6.40;5.40;;;11.70;99.90;;;;;;5095630;28;20196;-63
2021/05/13 07:19:47;;;;;;;6.17;5.17;;;11.70;99.90;;;;;;5095804;28;20294;-63
2021/05/13 07:22:17;;;;;;;5.37;4.87;;;11.70;99.90;;;;;;5095447;28;20228;-64
2021/05/13 07:24:44;;;;;;;5.80;4.60;;;11.70;99.90;;;;;;5095528;28;20227;-64
2021/05/13 07:27:11;;;;;;;7.50;5.47;;;11.80;99.90;;;;;;5095337;28;20318;-63
2021/05/13 07:29:39;;;;;;;6.93;5.60;;;11.70;99.90;;;;;;5095278;28;20200;-63
2021/05/13 07:32:06;;;;;;;6.93;6.23;;;11.80;99.90;;;;;;5095444;28;20196;-63
2021/05/13 07:34:35;;;;;;;7.10;5.50;;;11.80;99.90;;;;;;5095091;28;20200;-63
2021/05/13 07:37:02;;;;;;;8.00;5.20;;;11.90;99.90;;;;;;5095128;28;20200;-63
2021/05/13 07:39:30;;;;;;;8.30;6.10;;;11.90;99.90;;;;;;5095444;28;20188;-64
2021/05/13 07:41:57;;;;;;;8.13;6.00;;;12.00;99.90;;;;;;5094878;28;20682;-64
2021/05/13 07:44:26;;;;;;;7.87;6.50;;;12.00;99.90;;;;;;5094699;28;20296;-64
2021/05/13 07:46:54;;;;;;;6.53;5.87;;;12.10;99.90;;;;;;5095042;28;20646;-63
2021/05/13 07:49:23;;;;;;;6.70;6.00;;;12.10;99.90;;;;;;5094787;28;20655;-64
2021/05/13 07:51:51;;;;;;;8.57;7.00;;;12.20;99.90;;;;;;5094875;28;20280;-64
2021/05/13 07:54:19;;;;;;;7.77;6.80;;;12.30;99.90;;;;;;5095044;28;20196;-65
2021/05/13 07:56:47;;;;;;;7.73;6.13;;;12.30;99.90;;;;;;5094818;28;20291;-63
2021/05/13 07:59:14;;;;;;;6.80;5.53;;;12.30;99.90;;;;;;5094419;28;20196;-63
2021/05/13 08:01:41;;;;;;;6.27;5.67;;;12.40;99.90;;;;;;5094166;28;20654;-64
2021/05/13 08:04:09;;;;;;;7.03;5.90;;;12.40;99.90;;;;;;5094799;28;20239;-64
2021/05/13 08:06:36;;;;;;;6.73;6.03;;;12.40;99.90;;;;;;5094788;28;20222;-64
2021/05/13 08:09:05;;;;;;;5.17;4.67;;;12.50;99.90;;;;;;5094872;28;20231;-64
2021/05/13 08:11:33;;;;;;;5.20;4.70;;;12.60;99.90;;;;;;5092395;28;20235;-64
2021/05/13 08:14:01;;;;;;;8.40;5.00;;;12.60;99.90;;;;;;5094314;28;20257;-65
2021/05/13 08:16:28;;;;;;;6.40;4.77;;;12.60;99.90;;;;;;5093638;28;20239;-64
2021/05/13 08:18:56;;;;;;;6.00;4.37;;;12.60;99.90;;;;;;5094169;28;20308;-64
2021/05/13 08:21:23;;;;;;;7.00;4.70;;;12.60;99.90;;;;;;5093753;28;20234;-65
2021/05/13 08:23:50;;;;;;;6.53;4.93;;;12.70;99.90;;;;;;5094397;28;20203;-63
2021/05/13 08:26:18;;;;;;;5.33;4.40;;;12.70;99.90;;;;;;5093623;28;20197;-63
2021/05/13 08:28:46;;;;;;;4.50;4.03;;;12.90;99.90;;;;;;5093641;28;20337;-64
2021/05/13 08:31:13;;;;;;;7.40;4.27;;;12.80;99.90;;;;;;5093909;28;20532;-64
2021/05/13 08:33:40;;;;;;;4.83;4.00;;;12.80;99.90;;;;;;5093749;28;20192;-63
2021/05/13 08:36:08;;;;;;;5.60;3.77;;;12.90;99.90;;;;;;5093812;28;20288;-64
2021/05/13 08:38:35;;;;;;;5.17;3.63;;;12.90;99.90;;;;;;5082419;28;20303;-64
2021/05/13 08:41:04;;;;;;;3.90;3.47;;;13.00;99.90;;;;;;5082793;28;20288;-63
2021/05/13 08:43:32;;;;;;;3.93;3.20;;;13.20;99.90;;;;;;5093582;28;20704;-63
2021/05/13 08:45:59;;;;;;;4.53;2.50;;;13.20;99.90;;;;;;5093990;28;20239;-64
2021/05/13 08:48:28;;;;;;;2.57;2.10;;;13.10;99.90;;;;;;5086591;28;20209;-63
2021/05/13 08:50:57;;;;;;;3.63;2.00;;;13.20;99.90;;;;;;5077961;28;20197;-65
2021/05/13 08:53:24;;;;;;;3.73;3.00;;;13.10;99.90;;;;;;5076902;28;20247;-64
2021/05/13 08:55:52;;;;;;;3.90;2.70;;;13.20;99.90;;;;;;5083031;28;20284;-65
2021/05/13 08:58:19;;;;;;;4.13;2.87;;;13.20;99.90;;;;;;5084655;28;20276;-63
2021/05/13 09:00:55;;;;;;;3.43;2.90;;;13.20;99.90;;;;;;5073092;28;20572;-63
2021/05/13 09:03:33;;;;;;;4.37;3.63;;;13.20;99.90;;;;;;5075020;28;20569;-63
2021/05/13 09:06:00;;;;;;;4.27;3.87;;;13.20;99.90;;;;;;5091408;28;20200;-62
2021/05/13 09:08:28;;;;;;;6.68;4.68;;;13.30;99.90;;;;;;5093399;28;20232;-64
2021/05/13 09:11:09;;;;;;;6.43;4.90;;;13.40;99.90;;;;;;5093294;28;20204;-64
2021/05/13 09:13:36;;;;;;;5.47;4.47;;;13.60;99.90;;;;;;5092725;28;20237;-63
2021/05/13 09:16:25;;;;;;;6.10;4.20;;;13.60;99.90;;;;;;5092343;28;20282;-63
2021/05/13 09:18:53;;;;;;;5.07;4.43;;;13.80;99.90;;;;;;5092791;28;20600;-63
2021/05/13 09:21:20;;;;;;;5.57;4.50;;;14.00;99.90;;;;;;5092612;28;20289;-63
2021/05/13 09:23:48;;;;;;;5.28;4.32;;;14.10;99.90;;;;;;5093054;28;20303;-63
2021/05/13 09:26:17;;;;;;;5.35;4.65;;;14.20;99.90;;;;;;5092789;28;20238;-63
2021/05/13 09:28:47;;;;;;;8.50;5.03;;;14.30;99.90;;;;;;5092524;28;20230;-62
2021/05/13 09:31:37;;;;;;;5.50;5.00;;;14.40;99.90;;;;;;5092760;28;20243;-63
2021/05/13 09:34:06;;;;;;;6.70;4.80;;;14.50;99.90;;;;;;5092691;28;20624;-62
2021/05/13 09:36:35;;;;;;;5.82;5.28;;;14.50;99.90;;;;;;5092993;28;20210;-64
2021/05/13 09:39:21;;;;;;;6.97;5.32;;;14.70;99.90;;;;;;5091795;28;20326;-62
2021/05/13 09:41:58;;;;;;;6.20;5.30;;;14.60;99.90;;;;;;5092462;28;20184;-63
2021/05/13 09:44:33;;;;;;;6.47;5.75;;;14.60;99.90;;;;;;5092493;28;20578;-62
2021/05/13 09:47:16;;;;;;;6.07;5.47;;;14.60;99.90;;;;;;5092526;28;20234;-63
2021/05/13 09:50:02;;;;;;;5.75;5.15;;;14.70;99.90;;;;;;5092853;28;20324;-63
2021/05/13 09:52:45;;;;;;;6.03;5.38;;;14.70;99.90;;;;;;5092559;28;20188;-63
2021/05/13 09:55:27;;;;;;;6.20;5.25;;;14.70;99.90;;;;;;5092669;28;20219;-63
2021/05/13 09:57:58;;;;;;;6.00;5.30;;;14.70;99.90;;;;;;5092277;28;20695;-62
2021/05/13 10:00:37;;;;;;;6.68;5.78;;;14.60;99.90;;;;;;5092474;28;20188;-63
2021/05/13 10:03:09;;;;;;;6.10;5.50;;;14.40;99.90;;;;;;5092295;28;20295;-63
2021/05/13 10:05:38;;;;;;;5.80;4.80;;;14.40;99.90;;;;;;5092285;28;20639;-64
2021/05/13 10:08:06;;;;;;;6.55;5.38;;;14.40;99.90;;;;;;5092363;28;20301;-63
2021/05/13 10:10:37;;;;;;;5.75;4.90;;;14.20;99.90;;;;;;5092307;28;20533;-63
2021/05/13 10:13:06;;;;;;;5.90;5.32;;;14.50;99.90;;;;;;5092283;28;20200;-63
2021/05/13 10:15:39;;;;;;;4.82;4.32;;;14.70;99.90;;;;;;5091923;28;20573;-63
2021/05/13 10:18:15;;;;;;;5.57;4.50;;;14.70;99.90;;;;;;5092396;28;20246;-64
2021/05/13 10:20:45;;;;;;;4.72;4.13;;;14.90;99.90;;;;;;5092393;28;20271;-62
2021/05/13 10:23:14;;;;;;;4.93;4.10;;;15.10;99.90;;;;;;5092412;28;20246;-64
2021/05/13 10:25:41;;;;;;;5.05;4.50;;;15.10;99.90;;;;;;5092309;28;20231;-59
2021/05/13 10:28:13;;;;;;;5.85;4.15;;;14.80;99.90;;;;;;5092277;28;20212;-60
2021/05/13 10:30:41;;;;;;;4.82;3.50;;;15.00;99.90;;;;;;5092246;28;20184;-59
2021/05/13 10:33:15;;;;;;;3.75;3.35;;;15.10;99.90;;;;;;5092359;28;20311;-59
2021/05/13 10:36:04;;;;;;;4.88;3.70;;;15.40;99.90;;;;;;5092327;28;20223;-59
2021/05/13 10:38:48;;;;;;;4.78;3.55;;;15.30;99.90;;;;;;5092172;28;20319;-58
2021/05/13 10:41:36;;;;;;;6.35;3.70;;;15.20;99.90;;;;;;5092298;28;20191;-59
2021/05/13 10:44:38;;;;;;;2.30;2.10;;;15.00;99.90;;;;;;5091913;28;20239;-59
2021/05/13 10:47:07;;;;;;;2.33;1.40;;;14.90;99.90;;;;;;5092016;28;20710;-59
2021/05/13 10:49:49;;;;;;;1.63;1.38;;;14.60;99.90;;;;;;5093757;28;20211;-60
2021/05/13 10:52:30;;;;;;;1.70;1.60;;;14.40;99.90;;;;;;5095551;28;20293;-59
2021/05/13 10:54:58;;;;;;;2.00;1.48;;;14.20;99.90;;;;;;5090258;28;20212;-59
2021/05/13 10:57:25;;;;;;;2.05;1.40;;;14.20;99.90;;;;;;5087124;28;20184;-59
2021/05/13 11:00:24;;;;;;;2.25;1.40;;;14.30;99.90;;;;;;5091988;28;20702;-59
2021/05/13 11:02:52;;;;;;;1.00;0.90;;;14.60;99.90;;;;;;5095054;28;20239;-59
2021/05/13 11:05:41;;;;;;;1.73;1.27;;;14.70;99.90;;;;;;5096063;28;20204;-60
2021/05/13 11:08:28;;;;;;;2.75;1.85;;;14.80;99.90;;;;;;5095681;28;20215;-59
2021/05/13 11:10:58;;;;;;;1.75;1.60;;;14.90;99.90;;;;;;5095460;28;20246;-59
2021/05/13 11:13:47;;;;;;;2.35;2.13;;;15.00;99.90;;;;;;5094821;28;20238;-59
2021/05/13 11:16:43;;;;;;;2.63;2.40;;;14.80;99.90;;;;;;5094814;28;20234;-59
2021/05/13 11:19:25;;;;;;;3.67;2.97;;;15.00;99.90;;;;;;5095235;28;20177;-59
2021/05/13 11:21:59;;;;;;;2.95;2.47;;;15.20;99.90;;;;;;5095721;28;20245;-62
2021/05/13 11:24:38;;;;;;;4.65;3.38;;;15.10;99.90;;;;;;5095238;28;20222;-63
2021/05/13 11:27:07;;;;;;;3.60;2.90;;;14.90;99.90;;;;;;5094625;28;20267;-64
2021/05/13 11:29:50;;;;;;;3.95;3.17;;;14.80;99.90;;;;;;5094677;28;20212;-64
2021/05/13 11:32:18;;;;;;;4.40;3.72;;;14.90;99.90;;;;;;5095027;28;20686;-64
2021/05/13 11:34:47;;;;;;;3.80;3.50;;;15.10;99.90;;;;;;5095038;28;20202;-63
2021/05/13 11:37:35;;;;;;;4.80;3.40;;;15.20;99.90;;;;;;5094832;28;20204;-63
2021/05/13 11:40:23;;;;;;;4.47;3.20;;;15.40;99.90;;;;;;5095063;28;20204;-65
2021/05/13 11:42:51;;;;;;;3.08;2.60;;;15.50;99.90;;;;;;5094576;28;20651;-64
2021/05/13 11:45:20;;;;;;;3.30;2.67;;;15.60;99.90;;;;;;5094772;28;20230;-62
2021/05/13 11:47:48;;;;;;;2.38;2.15;;;15.80;99.90;;;;;;5094704;28;20224;-64
2021/05/13 11:50:26;;;;;;;2.13;1.80;;;15.70;99.90;;;;;;5094893;28;20200;-63
2021/05/13 11:53:09;;;;;;;2.47;2.28;;;15.60;99.90;;;;;;5094548;28;20208;-63
2021/05/13 11:55:39;;;;;;;2.90;2.00;;;15.70;99.90;;;;;;5094754;28;20216;-64
2021/05/13 11:58:07;;;;;;;5.18;2.20;;;15.70;99.90;;;;;;5094570;28;20227;-63
2021/05/13 12:00:34;;;;;;;2.10;1.92;;;15.60;99.90;;;;;;5093711;28;20624;-65
2021/05/13 12:03:13;;;;;;;4.28;2.08;;;15.70;99.90;;;;;;5094322;28;20764;-64
2021/05/13 12:05:49;;;;;;;2.50;2.05;;;15.60;99.90;;;;;;5094676;28;20245;-63
2021/05/13 12:08:22;;;;;;;2.70;1.88;;;15.30;99.90;;;;;;5094081;28;20315;-63
2021/05/13 12:10:50;;;;;;;2.53;2.22;;;15.10;99.90;;;;;;5094248;28;20180;-64
2021/05/13 12:13:18;;;;;;;3.53;2.00;;;15.20;99.90;;;;;;5094131;28;20253;-64
2021/05/13 12:15:46;;;;;;;3.45;1.98;;;15.20;99.90;;;;;;5093970;28;20601;-64
2021/05/13 12:18:15;;;;;;;2.63;1.80;;;15.10;99.90;;;;;;5094337;28;20196;-64
2021/05/13 12:20:43;;;;;;;2.85;1.75;;;15.10;99.90;;;;;;5094186;28;20688;-64
2021/05/13 12:23:13;;;;;;;3.65;2.10;;;15.00;99.90;;;;;;5094071;28;20255;-64
2021/05/13 12:25:42;;;;;;;2.13;1.80;;;15.00;99.90;;;;;;5094024;28;20300;-64
2021/05/13 12:28:09;;;;;;;1.90;1.60;;;15.00;99.90;;;;;;5093507;28;20678;-63
2021/05/13 12:30:37;;;;;;;2.28;1.50;;;14.90;99.90;;;;;;5093756;28;20295;-64
2021/05/13 12:33:22;;;;;;;1.88;1.60;;;15.00;99.90;;;;;;5093750;28;20243;-63
2021/05/13 12:35:51;;;;;;;2.17;1.85;;;15.30;99.90;;;;;;5093786;28;20275;-64
2021/05/13 12:38:21;;;;;;;2.67;1.70;;;15.50;99.90;;;;;;5089977;28;20593;-64
2021/05/13 12:41:05;;;;;;;2.50;1.50;;;15.70;99.90;;;;;;5093175;28;20204;-63
2021/05/13 12:43:32;;;;;;;2.60;1.67;;;15.70;99.90;;;;;;5091336;28;20223;-63
2021/05/13 12:46:00;;;;;;;2.13;1.60;;;15.60;99.90;;;;;;5093759;28;20296;-63
2021/05/13 12:48:29;;;;;;;3.03;1.70;;;15.80;99.90;;;;;;5092867;28;20242;-65
2021/05/13 12:50:58;;;;;;;2.70;1.40;;;15.70;99.90;;;;;;5093390;28;20302;-65
2021/05/13 12:53:27;;;;;;;1.98;1.70;;;15.90;99.90;;;;;;5093070;28;20588;-63
2021/05/13 12:55:56;;;;;;;1.90;1.50;;;16.00;99.90;;;;;;5093101;28;20261;-63
2021/05/13 12:58:25;;;;;;;2.08;1.80;;;16.10;99.90;;;;;;5092989;28;20394;-64
2021/05/13 13:00:55;;;;;;;1.98;1.65;;;16.40;99.90;;;;;;5093205;28;20321;-63